Flight Track Log - Related Links

Times and Time Zones

All times are in EDT time to prevent confusion due to time zone crossing. See the EJA929 flight status page for this flight to view local times or setup timezone preferences in your user account.

Time Position Orientation Groundspeed Altitude Reporting Facility
EDT Latitude Longitude Course Direction KTS MPH feet Rate Location/Type
Fri 11:37:15 AM 33.9333 -118.4333 239° Southwest 196 226 1,400  Level Southern California TRACON
Fri 11:38:15 AM 33.9000 -118.5000 239° Southwest 259 298 3,300 2,200 Climbing Southern California TRACON
Fri 11:39:15 AM 33.8333 -118.5167 192° South 275 316 5,800 2,365 Climbing Southern California TRACON
Fri 11:40:32 AM 33.7419 -118.5186 181° South 272 313 8,700 1,986 Climbing Los Angeles Center
Fri 11:41:34 AM 33.6722 -118.4369 136° Southeast 311 358 10,400 1,500 Climbing Los Angeles Center
Fri 11:42:36 AM 33.6589 -118.3253 98° East 346 398 11,800 1,355 Climbing Los Angeles Center
Fri 11:43:38 AM 33.6594 -118.2083 90° East 358 412 13,200 1,258 Climbing Los Angeles Center
Fri 11:44:40 AM 33.6594 -118.0564 90° East 378 435 14,400 1,113 Climbing Los Angeles Center
Fri 11:45:42 AM 33.6586 -117.9250 90° East 392 451 15,500 1,258 Climbing Los Angeles Center
Fri 11:46:44 AM 33.6564 -117.7911 91° East 401 461 17,000 1,452 Climbing Los Angeles Center
Fri 11:47:46 AM 33.6553 -117.6608 91° East 395 455 18,500 1,500 Climbing Los Angeles Center
Fri 11:48:48 AM 33.6533 -117.5261 91° East 403 464 20,100 1,355 Climbing Los Angeles Center
Fri 11:49:50 AM 33.6517 -117.3886 91° East 410 472 21,300 1,306 Climbing Los Angeles Center
Fri 11:50:52 AM 33.6492 -117.2178 91° East 426 490 22,800 1,258 Climbing Los Angeles Center
Fri 11:51:54 AM 33.6461 -117.0717 91° East 438 504 23,900 1,056 Climbing Los Angeles Center
Fri 11:52:57 AM 33.6436 -116.9183 91° East 460 529 25,000 576 Climbing Los Angeles Center
Fri 11:53:59 AM 33.6417 -116.7642 91° East 472 543 25,100 532 Climbing Los Angeles Center
Fri 11:55:01 AM 33.6381 -116.5961 91° East 494 568 26,100 1,016 Climbing Los Angeles Center
Fri 11:56:03 AM 33.6342 -116.4292 92° East 497 572 27,200 1,161 Climbing Los Angeles Center
Fri 11:57:05 AM 33.6286 -116.2283 92° East 499 574 28,500 1,103 Climbing Los Angeles Center
Fri 11:58:19 AM 33.6253 -116.0589 91° East 505 581 29,700 1,147 Climbing Los Angeles Center
Fri 11:59:21 AM 33.6225 -115.8564 91° East 504 580 31,100 1,248 Climbing Los Angeles Center
Fri 12:00:24 PM 33.6522 -115.6914 78° East 517 595 32,300 1,152 Climbing Los Angeles Center
Fri 12:01:26 PM 33.7117 -115.5392 65° Northeast 505 581 33,500 1,306 Climbing Los Angeles Center
Fri 12:02:28 PM 33.7894 -115.3581 63° Northeast 507 583 35,000 1,452 Climbing Los Angeles Center
Fri 12:03:30 PM 33.8544 -115.2053 63° Northeast 513 590 36,500 1,500 Climbing Los Angeles Center
Fri 12:04:32 PM 33.9203 -115.0578 62° Northeast 505 581 38,100 1,500 Climbing Los Angeles Center
Fri 12:05:34 PM 33.9850 -114.9083 62° Northeast 504 580 39,600 1,306 Climbing Los Angeles Center
Fri 12:06:36 PM 34.0483 -114.7581 63° Northeast 503 579 40,800 677 Climbing Los Angeles Center
Fri 12:07:38 PM 34.1133 -114.6061 63° Northeast 508 585 41,000 97 Climbing Los Angeles Center
Fri 12:08:40 PM 34.1942 -114.4142 63° Northeast 533 613 41,000  Level Los Angeles Center
Fri 12:09:42 PM 34.2622 -114.2489 63° Northeast 547 629 41,000  Level Los Angeles Center
Fri 12:10:44 PM 34.3317 -114.0819 63° Northeast 554 638 41,000  Level Los Angeles Center
Fri 12:11:46 PM 34.4078 -113.8989 63° Northeast 567 652 41,000  Level Los Angeles Center
Fri 12:12:48 PM 34.4767 -113.7319 63° Northeast 561 646 41,000  Level Los Angeles Center
Fri 12:13:50 PM 34.5450 -113.5650 64° Northeast 557 641 41,000  Level Los Angeles Center
Fri 12:14:52 PM 34.6131 -113.3981 64° Northeast 556 640 41,000  Level Los Angeles Center
Fri 12:15:54 PM 34.6808 -113.2311 64° Northeast 560 644 41,000  Level Los Angeles Center
Fri 12:16:56 PM 34.7619 -113.0303 64° Northeast 559 643 41,000  Level Los Angeles Center
Fri 12:17:58 PM 34.8297 -112.8625 64° Northeast 560 644 41,000  Level Los Angeles Center
Fri 12:19:01 PM 34.8961 -112.6936 64° Northeast 560 644 41,000  Level Los Angeles Center
Fri 12:20:03 PM 34.9633 -112.5236 64° Northeast 565 650 41,000  Level Los Angeles Center
Fri 12:21:05 PM 35.0450 -112.3208 64° Northeast 563 648 41,000  Level Los Angeles Center
Fri 12:22:07 PM 35.1119 -112.1481 65° Northeast 567 652 41,000  Level Los Angeles Center
Fri 12:23:09 PM 35.1792 -111.9764 64° Northeast 565 650 41,000  Level Los Angeles Center
Fri 12:24:11 PM 35.2458 -111.8044 65° Northeast 566 651 41,000  Level Los Angeles Center
Fri 12:25:13 PM 35.3161 -111.6242 64° Northeast 566 651 41,000  Level Los Angeles Center
Fri 12:26:15 PM 35.3936 -111.4225 65° Northeast 569 655 41,000  Level Los Angeles Center
Fri 12:27:43 PM 35.4919 -111.1636 65° Northeast 569 655 41,000  Level Albuquerque Center
Fri 12:28:45 PM 35.5556 -110.9939 65° Northeast 570 656 41,000  Level Albuquerque Center
Fri 12:29:47 PM 35.6314 -110.7967 65° Northeast 572 658 41,000  Level Albuquerque Center
Fri 12:30:49 PM 35.6939 -110.6275 65° Northeast 569 655 41,000  Level Albuquerque Center
Fri 12:31:51 PM 35.7672 -110.4317 65° Northeast 565 650 41,000  Level Albuquerque Center
Fri 12:32:53 PM 35.8297 -110.2639 65° Northeast 564 649 41,000  Level Albuquerque Center
Fri 12:33:55 PM 35.9019 -110.0681 65° Northeast 562 647 41,000  Level Albuquerque Center
Fri 12:34:57 PM 35.9633 -109.8978 66° East 565 650 41,000  Level Albuquerque Center
Fri 12:35:59 PM 36.0261 -109.7289 65° Northeast 565 650 41,000  Level Albuquerque Center
Fri 12:37:01 PM 36.0978 -109.5300 66° East 565 650 41,000  Level Albuquerque Center
Fri 12:38:03 PM 36.1586 -109.3617 66° East 562 647 41,000  Level Albuquerque Center
Fri 12:39:05 PM 36.2294 -109.1644 66° East 558 642 41,000  Level Albuquerque Center
Fri 12:40:07 PM 36.2908 -108.9944 66° East 557 641 41,000  Level Albuquerque Center
Fri 12:41:10 PM 36.3517 -108.8239 66° East 557 641 41,000  Level Albuquerque Center
Fri 12:42:12 PM 36.4217 -108.6253 66° East 558 642 41,000  Level Albuquerque Center
Fri 12:43:14 PM 36.4814 -108.4544 66° East 560 644 41,000  Level Albuquerque Center
Fri 12:44:33 PM 36.5706 -108.1967 67° East 561 646 41,000  Level Denver Center
Fri 12:45:35 PM 36.6297 -108.0244 67° East 565 650 41,000  Level Denver Center
Fri 12:46:37 PM 36.6981 -107.8225 67° East 566 651 41,000  Level Denver Center
Fri 12:47:39 PM 36.7572 -107.6500 67° East 568 654 41,000  Level Denver Center
Fri 12:48:41 PM 36.8164 -107.4756 67° East 569 655 41,000  Level Denver Center
Fri 12:49:43 PM 36.8847 -107.2706 67° East 572 658 41,000  Level Denver Center
Fri 12:50:45 PM 36.9439 -107.0964 67° East 571 657 41,000  Level Denver Center
Fri 12:51:47 PM 37.0114 -106.8925 67° East 568 654 41,000  Level Denver Center
Fri 12:52:49 PM 37.0697 -106.7178 67° East 569 655 41,000  Level Denver Center
Fri 12:53:51 PM 37.1378 -106.5136 67° East 568 654 41,000  Level Denver Center
Fri 12:54:53 PM 37.1933 -106.3383 68° East 567 652 41,000  Level Denver Center
Fri 12:55:56 PM 37.2606 -106.1336 68° East 569 655 41,000  Level Denver Center
Fri 12:56:58 PM 37.3167 -105.9561 68° East 570 656 41,000  Level Denver Center
Fri 12:58:00 PM 37.3833 -105.7486 68° East 574 661 41,000  Level Denver Center
Fri 12:59:02 PM 37.4394 -105.5706 68° East 573 659 41,000  Level Denver Center
Fri 01:00:04 PM 37.5061 -105.3639 68° East 573 659 41,000  Level Denver Center
Fri 01:01:06 PM 37.5658 -105.1697 69° East 568 654 41,000  Level Denver Center
Fri 01:02:08 PM 37.6219 -104.9944 68° East 565 650 41,000 -48 Level Denver Center
Fri 01:03:10 PM 37.6750 -104.8197 69° East 558 642 40,900 726 Descending Denver Center
Fri 01:04:12 PM 37.7383 -104.6133 69° East 563 648 42,500 1,016 Climbing Denver Center
Fri 01:05:14 PM 37.7906 -104.4408 69° East 549 632 43,000 242 Climbing Denver Center
Fri 01:06:16 PM 37.8533 -104.2333 69° East 558 642 43,000  Level Denver Center
Fri 01:07:18 PM 37.9089 -104.0503 69° East 572 658 43,000  Level Denver Center
Fri 01:08:20 PM 37.9725 -103.8336 70° East 581 669 43,000  Level Denver Center
Fri 01:09:22 PM 38.0283 -103.6478 69° East 585 673 43,000  Level Denver Center
Fri 01:10:25 PM 38.0831 -103.4594 70° East 591 680 43,000  Level Denver Center
Fri 01:11:27 PM 38.1475 -103.2408 69° East 591 680 43,000  Level Denver Center
Fri 01:12:29 PM 38.2078 -103.0322 70° East 595 685 43,000  Level Denver Center
Fri 01:13:31 PM 38.2606 -102.8442 70° East 592 681 43,000  Level Denver Center
Fri 01:14:33 PM 38.3253 -102.6217 70° East 597 687 43,000  Level Denver Center
Fri 01:15:35 PM 38.3789 -102.4333 70° East 593 682 43,000  Level Denver Center
Fri 01:16:37 PM 38.4406 -102.2103 70° East 594 684 43,000  Level Denver Center
Fri 01:17:39 PM 38.4939 -102.0211 70° East 592 681 43,000  Level Denver Center
Fri 01:18:41 PM 38.5461 -101.8308 71° East 592 681 43,000  Level Denver Center
Fri 01:19:43 PM 38.6072 -101.6072 71° East 595 685 43,000  Level Denver Center
Fri 01:20:45 PM 38.6594 -101.4161 71° East 594 684 43,000  Level Denver Center
Fri 01:21:47 PM 38.7200 -101.1936 71° East 592 681 43,000  Level Denver Center
Fri 01:22:49 PM 38.7711 -101.0022 71° East 591 680 43,000  Level Denver Center
Fri 01:23:51 PM 38.8306 -100.7786 71° East 591 680 43,000  Level Denver Center
Fri 01:24:54 PM 38.8806 -100.5869 71° East 592 681 43,000  Level Denver Center
Fri 01:25:56 PM 38.9389 -100.3633 71° East 590 679 43,000  Level Denver Center
Fri 01:26:58 PM 38.9922 -100.1558 72° East 589 678 43,000  Level Denver Center
Fri 01:28:00 PM 39.0456 -99.9494 72° East 587 676 43,000  Level Denver Center
Fri 01:29:05 PM 39.0936 -99.7581 72° East 587 676 43,000  Level Kansas City Center
Fri 01:30:04 PM 39.1431 -99.5672 71° East 586 674 43,000  Level Denver Center
Fri 01:31:06 PM 39.2014 -99.3308 72° East 587 676 43,000  Level Denver Center
Fri 01:32:08 PM 39.2497 -99.1422 72° East 581 669 43,000  Level Denver Center
Fri 01:33:10 PM 39.3000 -98.9361 72° East 581 669 43,000 47 Level Denver Center
Fri 01:34:15 PM 39.3492 -98.7303 73° East 577 664 43,100 512 Climbing Kansas City Center
Fri 01:35:19 PM 39.3947 -98.5425 73° East 572 658 44,100 905 Climbing Kansas City Center
Fri 01:36:21 PM 39.4486 -98.3183 73° East 547 629 45,000 435 Climbing Kansas City Center
Fri 01:37:23 PM 39.4903 -98.1475 72° East 542 624 45,000  Level Kansas City Center
Fri 01:38:23 PM 39.5364 -97.9547 73° East 554 638 45,000  Level Kansas City Center
Fri 01:39:27 PM 39.5842 -97.7497 73° East 556 640 45,000  Level Kansas City Center
Fri 01:40:29 PM 39.6283 -97.5581 73° East 557 641 45,000  Level Kansas City Center
Fri 01:41:30 PM 39.6714 -97.3667 74° East 556 640 45,000  Level Kansas City Center
Fri 01:42:32 PM 39.7244 -97.1450 73° East 558 642 45,000  Level Kansas City Center
Fri 01:43:35 PM 39.7689 -96.9517 73° East 559 643 45,000  Level Kansas City Center
Fri 01:44:37 PM 39.8131 -96.7481 74° East 560 644 45,000  Level Kansas City Center
Fri 01:45:40 PM 39.8561 -96.5531 74° East 562 647 45,000  Level Kansas City Center
Fri 01:46:41 PM 39.8992 -96.3578 74° East 562 647 45,000  Level Kansas City Center
Fri 01:47:42 PM 39.9458 -96.1464 74° East 560 644 45,000  Level Kansas City Center
Fri 01:48:46 PM 39.9928 -95.9272 74° East 560 644 45,000  Level Kansas City Center
Fri 01:49:47 PM 40.0328 -95.7394 74° East 561 646 45,000  Level Kansas City Center
Fri 01:50:48 PM 40.0725 -95.5511 75° East 560 644 45,000  Level Kansas City Center
Fri 01:51:51 PM 40.1194 -95.3278 75° East 565 650 45,000  Level Kansas City Center
Fri 01:52:52 PM 40.1581 -95.1386 75° East 562 647 45,000  Level Kansas City Center
Fri 01:53:56 PM 40.2047 -94.9158 75° East 566 651 45,000  Level Kansas City Center
Fri 01:54:56 PM 40.2431 -94.7253 75° East 566 651 45,000  Level Kansas City Center
Fri 01:55:59 PM 40.2892 -94.5000 75° East 570 656 45,000  Level Kansas City Center
Fri 01:57:03 PM 40.3275 -94.3092 75° East 568 654 45,000  Level Kansas City Center
Fri 01:58:04 PM 40.3619 -94.1175 77° East 573 659 45,000  Level Kansas City Center
Fri 01:59:05 PM 40.4103 -93.8786 75° East 571 657 45,000  Level Kansas City Center
Fri 02:00:07 PM 40.4489 -93.6786 76° East 570 656 45,000  Level Kansas City Center
Fri 02:01:11 PM 40.4858 -93.4783 76° East 569 655 45,000  Level Kansas City Center
Fri 02:02:12 PM 40.5258 -93.2789 75° East 567 652 45,000  Level Kansas City Center
Fri 02:03:13 PM 40.5639 -93.0772 76° East 569 655 45,000  Level Kansas City Center
Fri 02:04:15 PM 40.6103 -92.8350 76° East 569 655 45,000  Level Kansas City Center
Fri 02:05:19 PM 40.6481 -92.6294 76° East 573 659 45,000  Level Kansas City Center
Fri 02:06:21 PM 40.6842 -92.4264 77° East 570 656 45,000  Level Kansas City Center
Fri 02:07:22 PM 40.7217 -92.2219 76° East 572 658 45,000  Level Kansas City Center
Fri 02:08:28 PM 40.7642 -91.9797 77° East 570 656 45,000  Level Chicago Center
Fri 02:09:30 PM 40.8000 -91.7783 77° East 567 652 45,000  Level Chicago Center
Fri 02:10:32 PM 40.8347 -91.5767 77° East 567 652 45,000 -146 Level Chicago Center
Fri 02:11:33 PM 40.8744 -91.3775 75° East 565 650 44,700 -683 Descending Chicago Center
Fri 02:12:35 PM 40.9247 -91.1636 73° East 568 654 43,600 -1,645 Descending Chicago Center
Fri 02:13:37 PM 40.9711 -90.9606 73° East 574 661 41,300 -1,839 Descending Chicago Center
Fri 02:14:39 PM 41.0186 -90.7583 73° East 575 662 39,800 -1,790 Descending Chicago Center
Fri 02:15:41 PM 41.0636 -90.5614 73° East 560 644 37,600 -2,565 Descending Chicago Center
Fri 02:16:43 PM 41.1069 -90.3694 73° East 547 629 34,500 -1,742 Descending Chicago Center
Fri 02:17:45 PM 41.1608 -90.1331 73° East 551 634 34,000 -242 Descending Chicago Center
Fri 02:18:47 PM 41.2064 -89.9239 74° East 576 663 34,000 -919 Level Chicago Center
Fri 02:19:49 PM 41.2511 -89.7192 74° East 574 661 32,100 -1,452 Descending Chicago Center
Fri 02:20:51 PM 41.2972 -89.5108 74° East 581 669 31,000 -532 Descending Chicago Center
Fri 02:21:53 PM 41.3414 -89.3028 74° East 581 669 31,000  Level Chicago Center
Fri 02:22:55 PM 41.3906 -89.0758 74° East 576 663 31,000 -290 Level Chicago Center
Fri 02:23:57 PM 41.4389 -88.8725 72° East 577 664 30,400 -1,392 Descending Chicago Center
Fri 02:25:00 PM 41.5228 -88.6906 58° Northeast 575 662 28,100 -2,400 Descending Chicago Center
Fri 02:26:02 PM 41.6122 -88.5172 55° Northeast 567 652 25,400 -1,935 Descending Chicago Center
Fri 02:27:04 PM 41.7114 -88.3722 47° Northeast 534 615 24,100 -677 Descending Chicago Center
Fri 02:28:06 PM 41.8339 -88.3136 20° North 463 533 24,000 -1,113 Descending Chicago Center
Fri 02:29:08 PM 41.9714 -88.3103 North 411 473 21,800 -2,516 Descending Chicago Center
Fri 02:30:10 PM 42.0831 -88.3092 360° North 402 463 18,800 -2,371 Descending Chicago Center
Fri 02:31:12 PM 42.1914 -88.3083 360° North 389 448 16,900 -1,258 Descending Chicago Center
Fri 02:32:14 PM 42.2833 -88.3083 360° North 334 384 16,200 -1,355 Descending Chicago Center
Fri 02:33:16 PM 42.3719 -88.3061 North 326 375 14,100 -2,032 Descending Chicago Center
Fri 02:34:18 PM 42.4844 -88.3058 360° North 336 387 12,000 -1,790 Descending Chicago Center
Fri 02:35:20 PM 42.5703 -88.3036 North 313 360 10,400 -960 Descending Chicago Center
Fri 02:36:23 PM 42.6517 -88.3044 360° North 296 341 10,000 -672 Descending Chicago Center
Fri 02:37:25 PM 42.7294 -88.2822 12° North 298 343 9,000 -1,210 Descending Chicago Center
Fri 02:38:27 PM 42.7267 -88.1756 92° East 292 336 7,500 -1,887 Descending Chicago Center
Fri 02:39:29 PM 42.6786 -88.0742 123° Southeast 271 312 5,100 -1,694 Descending Chicago Center
Fri 02:40:31 PM 42.6303 -88.0147 138° Southeast 260 299 4,000 -581 Descending Chicago Center
Fri 02:41:33 PM 42.5653 -88.0064 175° South 245 282 3,900 -290 Descending Chicago Center
Fri 02:42:35 PM 42.5014 -87.9953 173° South 238 274 3,400 -774 Descending Chicago Center
Fri 02:43:37 PM 42.4381 -87.9883 175° South 232 267 2,300 -532 Descending Chicago Center
Fri 02:44:39 PM 42.3933 -88.0178 206° Southwest 215 247 2,300  Level Chicago Center
Fri 02:46:31 PM 42.3486 -87.9894 155° Southeast 152 175 2,300 34 Level Chicago Center
Fri 02:47:33 PM 42.3747 -87.9333 58° Northeast 187 215 2,400 97 Climbing Chicago Center
Fri 02:49:00 PM 42.4167 -87.8667 101° East  Level FlightAware Approximate

Login

Don't have an account? Register now (free) for customized features, flight alerts, and more!